createdAt,value
2019-04-23T00:00:11.743Z,8.58
2019-04-23T00:02:20.600Z,7.83
2019-04-23T00:04:48.141Z,7.90
2019-04-23T00:09:56.884Z,8.10
2019-04-23T00:12:29.971Z,5.58
2019-04-23T00:15:05.159Z,9.43
2019-04-23T00:17:38.897Z,5.85
2019-04-23T00:20:06.183Z,6.45
2019-04-23T00:22:36.678Z,8.33
2019-04-23T00:25:34.467Z,8.40
2019-04-23T00:27:51.588Z,3.67
2019-04-23T00:30:23.924Z,5.70
2019-04-23T00:33:29.695Z,6.20
2019-04-23T00:35:56.512Z,7.42
2019-04-23T00:38:38.590Z,6.85
2019-04-23T00:41:05.685Z,7.33
2019-04-23T00:43:43.290Z,9.83
2019-04-23T00:46:13.406Z,5.45
2019-04-23T00:48:45.410Z,6.37
2019-04-23T00:51:20.610Z,7.10
2019-04-23T00:53:43.637Z,5.33
2019-04-23T00:56:32.336Z,7.05
2019-04-23T00:58:49.499Z,8.00
2019-04-23T01:01:18.311Z,7.87
2019-04-23T01:03:55.114Z,5.90
2019-04-23T01:06:25.570Z,7.03
2019-04-23T01:08:55.179Z,4.37
2019-04-23T01:11:27.640Z,4.35
2019-04-23T01:13:52.988Z,5.35
2019-04-23T01:16:31.519Z,5.65
2019-04-23T01:19:12.185Z,8.45
2019-04-23T01:21:24.457Z,6.45
2019-04-23T01:24:08.301Z,5.92
2019-04-23T01:27:32.511Z,9.03
2019-04-23T01:29:56.149Z,4.65
2019-04-23T01:32:32.128Z,4.90
2019-04-23T01:37:36.765Z,6.33
2019-04-23T01:40:04.230Z,5.33
2019-04-23T01:47:49.731Z,9.15
2019-04-23T01:52:53.949Z,8.00
2019-04-23T01:58:06.979Z,7.17
2019-04-23T02:00:30.362Z,7.08
2019-04-23T02:06:44.828Z,9.33
2019-04-23T02:09:17.101Z,6.90
2019-04-23T02:12:07.116Z,7.37
2019-04-23T02:14:26.754Z,7.37
2019-04-23T02:16:50.255Z,8.40
2019-04-23T02:19:23.852Z,7.53
2019-04-23T02:22:03.968Z,5.37
2019-04-23T02:27:12.208Z,7.00
2019-04-23T02:29:56.896Z,7.80
2019-04-23T02:32:08.895Z,5.87
2019-04-23T02:35:09.996Z,6.97
2019-04-23T02:37:40.872Z,6.08
2019-04-23T02:40:01.943Z,12.63
2019-04-23T02:42:43.321Z,8.00
2019-04-23T02:44:56.123Z,10.95
2019-04-23T02:47:35.008Z,9.80
2019-04-23T02:50:32.919Z,7.33
2019-04-23T02:52:28.990Z,14.58
2019-04-23T02:57:36.415Z,8.15
2019-04-23T03:00:18.919Z,5.17
2019-04-23T03:02:58.786Z,7.67
2019-04-23T03:05:20.071Z,9.13
2019-04-23T03:07:47.491Z,7.83
2019-04-23T03:23:46.687Z,9.78
2019-04-23T03:26:31.620Z,8.70
2019-04-23T03:29:04.339Z,8.83
2019-04-23T03:33:08.570Z,6.20
2019-04-23T03:34:19.602Z,9.00
2019-04-23T03:38:48.375Z,5.75
2019-04-23T03:41:27.792Z,6.90
2019-04-23T03:46:30.370Z,10.65
2019-04-23T03:48:54.970Z,11.00
2019-04-23T03:56:44.817Z,9.70
2019-04-23T03:59:31.655Z,6.80
2019-04-23T04:01:34.731Z,5.75
2019-04-23T04:07:01.277Z,9.03
2019-04-23T04:09:26.055Z,8.63
2019-04-23T04:11:27.473Z,7.90
2019-04-23T04:19:34.008Z,6.22
2019-04-23T04:24:27.493Z,8.38
2019-04-23T04:27:01.750Z,7.05
2019-04-23T04:29:47.103Z,7.75
2019-04-23T04:39:33.989Z,8.38
2019-04-23T04:42:06.152Z,6.70
2019-04-23T04:47:27.874Z,9.13
2019-04-23T04:54:24.562Z,12.00
2019-04-23T04:57:21.858Z,7.37
2019-04-23T04:59:54.036Z,15.05
2019-04-23T05:04:59.873Z,6.20
2019-04-23T05:07:27.668Z,10.93
2019-04-23T05:09:55.159Z,8.15
2019-04-23T05:12:23.795Z,12.68
2019-04-23T05:14:56.855Z,7.35
2019-04-23T05:17:54.619Z,7.60
2019-04-23T05:20:16.723Z,9.45
2019-04-23T05:22:49.353Z,7.03
2019-04-23T05:25:15.531Z,8.55
2019-04-23T05:27:53.629Z,9.45
2019-04-23T05:30:24.814Z,14.90
2019-04-23T05:32:49.112Z,8.00
2019-04-23T05:35:33.298Z,10.25
2019-04-23T05:41:03.745Z,7.67
2019-04-23T05:42:53.284Z,11.33
2019-04-23T05:45:33.299Z,8.20
2019-04-23T05:48:06.757Z,7.65
2019-04-23T05:50:50.613Z,6.40
2019-04-23T05:55:43.028Z,10.60
2019-04-23T05:58:18.511Z,8.43
2019-04-23T06:03:22.891Z,8.88
2019-04-23T06:05:59.770Z,14.45
2019-04-23T06:08:35.147Z,10.98
2019-04-23T06:11:02.555Z,11.28
2019-04-23T06:13:35.609Z,10.28
2019-04-23T06:15:59.353Z,9.00
2019-04-23T06:18:38.961Z,10.55
2019-04-23T06:23:50.145Z,13.32
2019-04-23T06:26:19.815Z,10.78
2019-04-23T06:28:46.223Z,10.78
2019-04-23T06:31:20.449Z,10.38
2019-04-23T06:33:43.379Z,10.55
2019-04-23T06:36:18.998Z,14.65
2019-04-23T06:38:53.388Z,7.42
2019-04-23T06:43:59.904Z,11.03
2019-04-23T06:46:20.036Z,9.23
2019-04-23T06:48:58.999Z,7.65
2019-04-23T06:51:29.239Z,8.03
2019-04-23T06:53:59.943Z,9.33
2019-04-23T06:56:33.546Z,9.45
2019-04-23T06:59:02.587Z,8.33
2019-04-23T07:01:35.853Z,8.85
2019-04-23T07:04:05.595Z,12.82
2019-04-23T07:09:13.436Z,9.08
2019-04-23T07:11:51.282Z,11.18
2019-04-23T07:14:02.580Z,11.22
2019-04-23T07:16:58.402Z,11.63
2019-04-23T07:19:31.821Z,12.90
2019-04-23T07:24:45.838Z,10.08
2019-04-23T07:27:13.444Z,10.32
2019-04-23T07:29:55.550Z,11.03
2019-04-23T07:32:20.870Z,10.72
2019-04-23T07:34:59.270Z,10.72
2019-04-23T07:37:22.258Z,10.93
2019-04-23T07:40:09.886Z,10.75
2019-04-23T07:42:37.285Z,12.10
2019-04-23T07:45:10.506Z,10.48
2019-04-23T07:48:01.834Z,10.88
2019-04-23T07:58:19.547Z,11.12
2019-04-23T08:03:29.029Z,11.97
2019-04-23T08:06:02.670Z,9.50
2019-04-23T08:14:13.581Z,12.15
2019-04-23T08:21:39.788Z,11.75
2019-04-23T08:24:38.100Z,12.47
2019-04-23T08:27:07.554Z,13.48
2019-04-23T08:29:47.705Z,12.47
2019-04-23T08:32:12.032Z,17.02
2019-04-23T08:34:58.430Z,11.65
2019-04-23T08:39:43.181Z,10.55
2019-04-23T08:45:07.582Z,13.83
2019-04-23T08:48:03.645Z,10.23
2019-04-23T08:50:14.963Z,11.85
2019-04-23T08:52:48.259Z,12.65
2019-04-23T08:55:16.906Z,16.40
2019-04-23T08:57:43.255Z,10.23
2019-04-23T09:00:23.458Z,14.18
2019-04-23T09:02:54.080Z,14.30
2019-04-23T09:05:28.663Z,9.23
2019-04-23T09:07:59.794Z,13.10
2019-04-23T09:13:40.170Z,10.13
2019-04-23T09:15:55.889Z,13.15
2019-04-23T09:20:55.271Z,12.53
2019-04-23T09:23:46.723Z,12.55
2019-04-23T09:25:57.707Z,11.55
2019-04-23T09:28:42.955Z,12.70
2019-04-23T09:36:23.850Z,10.20
2019-04-23T09:38:55.812Z,13.83
2019-04-23T09:41:31.143Z,11.55
2019-04-23T09:44:47.266Z,11.75
2019-04-23T09:47:06.579Z,13.22
2019-04-23T09:49:42.535Z,19.55
2019-04-23T09:54:47.673Z,13.62
2019-04-23T09:57:10.869Z,10.28
2019-04-23T09:59:45.720Z,12.78
2019-04-23T10:02:05.530Z,11.08
2019-04-23T10:04:39.802Z,14.00
2019-04-23T10:07:07.275Z,16.77
2019-04-23T10:09:27.687Z,17.05
2019-04-23T10:11:58.745Z,15.53
2019-04-23T10:14:30.321Z,16.10
2019-04-23T10:17:02.062Z,17.45
2019-04-23T10:19:32.876Z,13.13
2019-04-23T10:22:05.059Z,12.13
2019-04-23T10:24:37.015Z,15.88
2019-04-23T10:27:08.380Z,13.68
2019-04-23T10:29:41.811Z,14.25
2019-04-23T10:32:15.803Z,14.45
2019-04-23T10:34:57.848Z,21.00
2019-04-23T10:37:31.634Z,13.68
2019-04-23T10:39:58.188Z,12.93
2019-04-23T10:42:30.699Z,13.50
2019-04-23T10:45:26.928Z,22.05
2019-04-23T10:50:57.166Z,13.03
2019-04-23T10:56:18.456Z,18.67
2019-04-23T11:01:21.344Z,14.55
2019-04-23T11:04:11.891Z,21.50
2019-04-23T11:06:39.661Z,12.18
2019-04-23T11:09:15.691Z,15.78
2019-04-23T11:11:40.750Z,19.50
2019-04-23T11:14:18.978Z,18.98
2019-04-23T11:19:23.751Z,18.77
2019-04-23T11:22:04.330Z,18.35
2019-04-23T11:24:36.145Z,14.60
2019-04-23T11:27:10.256Z,12.73
2019-04-23T11:35:05.055Z,17.02
2019-04-23T11:38:01.636Z,14.33
2019-04-23T11:40:08.698Z,15.53
2019-04-23T11:42:42.594Z,14.05
2019-04-23T11:45:30.589Z,12.80
2019-04-23T11:48:23.940Z,15.13
2019-04-23T11:50:38.036Z,16.25
2019-04-23T11:58:07.690Z,19.12
2019-04-23T12:00:45.620Z,13.68
2019-04-23T12:03:17.513Z,15.23
2019-04-23T12:06:15.434Z,18.62
2019-04-23T12:08:50.938Z,16.87
2019-04-23T12:11:50.261Z,18.65
2019-04-23T12:14:03.636Z,14.40
2019-04-23T12:16:38.413Z,13.28
2019-04-23T12:19:33.287Z,14.38
2019-04-23T12:21:45.398Z,22.13
2019-04-23T12:24:15.672Z,15.40
2019-04-23T12:26:46.450Z,16.52
2019-04-23T12:29:21.896Z,15.10
2019-04-23T12:32:14.537Z,14.28
2019-04-23T12:34:47.527Z,12.73
2019-04-23T12:37:32.763Z,15.65
2019-04-23T12:42:48.909Z,17.25
2019-04-23T12:53:10.189Z,13.03
2019-04-23T13:03:29.923Z,14.45
2019-04-23T13:05:57.535Z,18.05
2019-04-23T13:11:30.165Z,14.58
2019-04-23T13:13:56.385Z,18.65
2019-04-23T13:19:39.907Z,15.83
2019-04-23T13:25:05.375Z,20.23
2019-04-23T13:33:26.729Z,17.95
2019-04-23T13:35:55.230Z,19.60
2019-04-23T13:40:57.191Z,25.65
2019-04-23T13:43:30.366Z,13.25
2019-04-23T13:56:01.965Z,17.45
2019-04-23T13:58:50.462Z,16.40
2019-04-23T14:09:15.091Z,19.12
2019-04-23T14:16:35.850Z,15.10
2019-04-23T14:19:02.341Z,16.82
2019-04-23T14:22:21.237Z,14.43
2019-04-23T14:24:26.856Z,18.62
2019-04-23T14:26:48.893Z,15.65
2019-04-23T14:29:31.883Z,14.47
2019-04-23T14:32:05.145Z,20.72
2019-04-23T14:34:24.966Z,17.60
2019-04-23T14:39:34.086Z,15.70
2019-04-23T14:42:24.726Z,16.45
2019-04-23T14:44:41.543Z,16.30
2019-04-23T14:47:23.949Z,18.07
2019-04-23T14:55:56.942Z,17.57
2019-04-23T15:01:07.482Z,15.28
2019-04-23T15:03:35.400Z,23.70
2019-04-23T15:06:12.361Z,18.70
2019-04-23T15:08:40.644Z,19.75
2019-04-23T15:11:21.406Z,15.38
2019-04-23T15:16:17.382Z,21.60
2019-04-23T15:18:55.119Z,18.30
2019-04-23T15:21:39.698Z,16.25
2019-04-23T15:27:21.894Z,22.50
2019-04-23T15:28:37.517Z,19.65
2019-04-23T15:31:44.408Z,20.00
2019-04-23T15:34:14.197Z,18.10
2019-04-23T15:36:59.764Z,18.42
2019-04-23T15:41:55.869Z,26.12
2019-04-23T15:44:13.689Z,19.23
2019-04-23T15:46:47.209Z,15.78
2019-04-23T15:49:22.848Z,17.15
2019-04-23T15:54:32.076Z,21.73
2019-04-23T15:56:55.048Z,19.42
2019-04-23T16:01:41.236Z,19.55
2019-04-23T16:04:03.373Z,21.82
2019-04-23T16:06:36.857Z,14.23
2019-04-23T16:09:28.436Z,16.15
2019-04-23T16:11:58.961Z,15.15
2019-04-23T16:17:18.745Z,17.50
2019-04-23T16:23:00.951Z,24.15
2019-04-23T16:25:17.833Z,16.30
2019-04-23T16:27:56.397Z,17.85
2019-04-23T16:30:32.557Z,15.53
2019-04-23T16:38:23.239Z,15.67
2019-04-23T16:40:41.463Z,17.75
2019-04-23T16:45:55.535Z,14.20
2019-04-23T16:51:13.676Z,16.48
2019-04-23T16:53:27.532Z,14.95
2019-04-23T16:56:05.186Z,21.97
2019-04-23T16:58:33.612Z,14.23
2019-04-23T17:03:38.343Z,13.43
2019-04-23T17:06:12.159Z,20.25
2019-04-23T17:11:15.723Z,16.87
2019-04-23T17:13:52.099Z,20.52
2019-04-23T17:16:23.434Z,11.90
2019-04-23T17:18:55.250Z,15.03
2019-04-23T17:21:23.306Z,17.80
2019-04-23T17:24:08.999Z,16.90
2019-04-23T17:26:29.117Z,21.45
2019-04-23T17:29:08.431Z,13.28
2019-04-23T17:34:18.702Z,20.97
2019-04-23T17:36:45.841Z,19.57
2019-04-23T17:39:48.466Z,15.75
2019-04-23T17:42:22.481Z,15.53
2019-04-23T17:45:03.171Z,18.90
2019-04-23T17:47:28.559Z,21.05
2019-04-23T17:50:56.934Z,15.80
2019-04-23T17:52:35.112Z,16.85
2019-04-23T17:55:09.310Z,17.25
2019-04-23T18:02:55.963Z,19.05
2019-04-23T18:05:36.303Z,18.62
2019-04-23T18:08:11.789Z,14.55
2019-04-23T18:10:37.102Z,18.55
2019-04-23T18:13:06.020Z,17.32
2019-04-23T18:15:41.931Z,12.85
2019-04-23T18:18:16.551Z,11.15
2019-04-23T18:20:58.025Z,17.73
2019-04-23T18:23:26.189Z,13.75
2019-04-23T18:25:58.038Z,12.68
2019-04-23T18:28:29.610Z,12.68
2019-04-23T18:31:29.383Z,14.00
2019-04-23T18:34:12.616Z,18.27
2019-04-23T18:36:18.331Z,12.35
2019-04-23T18:41:43.045Z,12.63
2019-04-23T18:44:30.507Z,13.70
2019-04-23T18:52:39.438Z,16.57
2019-04-23T18:54:56.969Z,12.98
2019-04-23T18:57:27.398Z,14.20
2019-04-23T19:00:09.074Z,12.23
2019-04-23T19:02:52.349Z,14.63
2019-04-23T19:13:07.045Z,16.32
2019-04-23T19:23:50.997Z,16.07
2019-04-23T19:25:44.153Z,16.05
2019-04-23T19:28:38.358Z,16.67
2019-04-23T19:31:10.296Z,20.30
2019-04-23T19:33:45.485Z,16.30
2019-04-23T19:38:43.520Z,17.25
2019-04-23T19:41:19.066Z,14.83
2019-04-23T19:46:36.946Z,18.20
2019-04-23T19:48:57.904Z,18.87
2019-04-23T19:51:26.930Z,18.02
2019-04-23T19:54:16.722Z,19.42
2019-04-23T19:59:02.045Z,18.70
2019-04-23T20:01:33.412Z,18.32
2019-04-23T20:03:56.066Z,18.90
2019-04-23T20:07:00.144Z,19.30
2019-04-23T20:09:30.631Z,17.67
2019-04-23T20:11:50.677Z,17.65
2019-04-23T20:14:11.622Z,16.25
2019-04-23T20:17:21.451Z,14.38
2019-04-23T20:19:20.954Z,16.27
2019-04-23T20:22:00.256Z,18.70
2019-04-23T20:24:28.543Z,17.15
2019-04-23T20:26:59.269Z,17.92
2019-04-23T20:32:05.522Z,15.48
2019-04-23T20:34:53.098Z,19.17
2019-04-23T20:37:48.748Z,24.00
2019-04-23T20:39:56.683Z,18.23
2019-04-23T20:45:07.848Z,19.20
2019-04-23T20:47:37.179Z,25.90
2019-04-23T20:49:58.243Z,20.62
2019-04-23T20:52:46.599Z,18.95
2019-04-23T20:55:21.278Z,16.40
2019-04-23T21:00:30.336Z,24.27
2019-04-23T21:03:28.874Z,23.83
2019-04-23T21:05:33.176Z,21.87
2019-04-23T21:08:06.093Z,24.63
2019-04-23T21:10:46.867Z,24.82
2019-04-23T21:13:27.517Z,19.32
2019-04-23T21:15:45.284Z,20.37
2019-04-23T21:20:56.743Z,18.55
2019-04-23T21:23:24.338Z,25.65
2019-04-23T21:25:56.123Z,19.55
2019-04-23T21:28:37.180Z,29.00
2019-04-23T21:31:06.079Z,23.52
2019-04-23T21:33:59.613Z,20.60
2019-04-23T21:39:15.433Z,20.90
2019-04-23T21:44:35.908Z,19.45
2019-04-23T21:46:58.177Z,19.40
2019-04-23T21:52:11.175Z,22.37
2019-04-23T21:57:37.080Z,24.10
2019-04-23T22:03:29.637Z,19.70
2019-04-23T22:15:06.891Z,25.85
2019-04-23T22:17:44.855Z,25.30
2019-04-23T22:20:34.164Z,28.90
2019-04-23T22:28:51.001Z,26.52
2019-04-23T22:31:18.652Z,27.37
2019-04-23T22:34:02.293Z,34.92
2019-04-23T22:36:29.202Z,21.75
2019-04-23T22:39:07.813Z,23.65
2019-04-23T22:44:24.599Z,65.40
2019-04-23T22:46:52.133Z,27.10
2019-04-23T22:49:30.859Z,19.60
2019-04-23T22:51:59.184Z,22.70
2019-04-23T22:56:54.329Z,24.15
2019-04-23T22:59:27.985Z,19.77
2019-04-23T23:01:59.111Z,20.32
2019-04-23T23:04:33.519Z,18.98
2019-04-23T23:07:01.198Z,23.62
2019-04-23T23:12:04.384Z,29.07
2019-04-23T23:14:35.282Z,25.02
2019-04-23T23:17:16.326Z,23.87
2019-04-23T23:20:03.487Z,25.25
2019-04-23T23:25:23.860Z,27.55
2019-04-23T23:33:04.115Z,21.05
2019-04-23T23:35:34.663Z,21.52
2019-04-23T23:38:24.057Z,23.70
2019-04-23T23:41:05.418Z,21.87
2019-04-23T23:43:25.876Z,19.27
2019-04-23T23:48:48.457Z,21.82
2019-04-23T23:51:27.336Z,22.07
2019-04-23T23:56:52.322Z,23.40
2019-04-23T23:59:26.969Z,21.23
